createdAt,value
2024-03-31T00:01:29.894Z,69.6
2024-03-31T00:06:29.907Z,69.6
2024-03-31T00:16:29.905Z,69.6
2024-03-31T00:21:29.937Z,69.6
2024-03-31T00:26:29.915Z,69.5
2024-03-31T00:36:29.906Z,70
2024-03-31T00:41:29.919Z,69.5
2024-03-31T01:01:29.917Z,69.5
2024-03-31T01:11:29.889Z,69.5
2024-03-31T01:16:29.895Z,69.4
2024-03-31T01:21:29.953Z,69.4
2024-03-31T01:31:29.889Z,69.4
2024-03-31T01:36:29.900Z,69.4
2024-03-31T01:41:29.909Z,69.4
2024-03-31T01:46:29.914Z,69.3
2024-03-31T01:56:29.889Z,69.5
2024-03-31T02:01:29.916Z,69.5
2024-03-31T02:16:29.891Z,69.4
2024-03-31T02:26:29.883Z,69.4
2024-03-31T02:31:29.897Z,69.4
2024-03-31T02:36:29.917Z,69.5
2024-03-31T02:46:29.917Z,69.6
2024-03-31T02:51:29.915Z,69.6
2024-03-31T02:56:29.923Z,69.6
2024-03-31T03:06:29.935Z,69.8
2024-03-31T03:11:29.937Z,69.9
2024-03-31T03:36:29.929Z,70.7
2024-03-31T03:46:29.926Z,70.9
2024-03-31T03:51:29.958Z,71.2
2024-03-31T04:01:29.947Z,71.3
2024-03-31T04:11:29.905Z,71.5
2024-03-31T04:16:29.914Z,71.8
2024-03-31T04:21:29.932Z,71.9
2024-03-31T04:31:29.901Z,72.2
2024-03-31T04:36:29.915Z,72.3
2024-03-31T04:56:29.955Z,72.7
2024-03-31T05:06:29.930Z,72.9
2024-03-31T05:11:29.930Z,72.8
2024-03-31T05:21:32.235Z,72.8
2024-03-31T05:26:29.933Z,72.8
2024-03-31T05:31:29.928Z,72.9
2024-03-31T05:41:29.985Z,72.9
2024-03-31T05:46:29.916Z,72.9
2024-03-31T05:56:29.923Z,73
2024-03-31T06:21:29.912Z,73.1
2024-03-31T06:26:29.929Z,73.1
2024-03-31T06:31:29.922Z,73.2
2024-03-31T06:41:29.915Z,73.3
2024-03-31T06:46:29.918Z,73.4
2024-03-31T07:06:29.911Z,73.7
2024-03-31T07:11:29.917Z,73.7
2024-03-31T07:16:29.931Z,73.8
2024-03-31T07:41:29.935Z,74.3
2024-03-31T07:46:29.929Z,74.3
2024-03-31T07:56:29.907Z,74.8
2024-03-31T08:06:29.938Z,74.5
2024-03-31T08:11:29.959Z,74.2
2024-03-31T08:21:29.971Z,74.3
2024-03-31T08:31:29.957Z,74.2
2024-03-31T08:36:29.980Z,73.8
2024-03-31T08:41:30.283Z,73.8
2024-03-31T09:01:29.993Z,74
2024-03-31T09:06:30.014Z,73.9
2024-03-31T09:16:30.017Z,74
2024-03-31T09:21:30.024Z,73.8
2024-03-31T09:26:30.012Z,73.9
2024-03-31T09:36:29.992Z,73.9
2024-03-31T09:41:29.993Z,73.8
2024-03-31T09:46:30.037Z,73.8
2024-03-31T09:56:30.023Z,73.7
2024-03-31T10:16:30.052Z,73
2024-03-31T10:21:30.077Z,72.9
2024-03-31T10:31:30.054Z,72.7
2024-03-31T10:36:30.047Z,72.8
2024-03-31T10:41:30.079Z,72.7
2024-03-31T10:46:30.104Z,72.7
2024-03-31T10:56:30.078Z,72.1
2024-03-31T11:01:30.096Z,72.4
2024-03-31T11:06:30.085Z,72.5
2024-03-31T11:16:30.103Z,72.3
2024-03-31T11:36:30.107Z,72
2024-03-31T11:41:30.154Z,71.8
2024-03-31T11:46:30.140Z,71
2024-03-31T12:06:30.158Z,70.7
2024-03-31T12:16:30.106Z,70.3
2024-03-31T12:21:30.120Z,70.7
2024-03-31T12:26:30.258Z,70.9
2024-03-31T12:36:30.125Z,71
2024-03-31T13:06:30.115Z,69.9
2024-03-31T13:16:30.205Z,69.4
2024-03-31T13:21:30.143Z,69.1
2024-03-31T13:31:30.084Z,69.2
2024-03-31T13:36:30.102Z,69
2024-03-31T13:46:30.106Z,69.4
2024-03-31T13:56:30.179Z,69.3
2024-03-31T14:16:30.111Z,69.2
2024-03-31T14:26:30.085Z,69.3
2024-03-31T14:36:30.100Z,69.6
2024-03-31T14:46:30.103Z,69.5
2024-03-31T14:56:30.100Z,69.4
2024-03-31T15:01:30.101Z,69.6
2024-03-31T15:11:30.093Z,69.8
2024-03-31T15:16:30.112Z,70
2024-03-31T15:36:30.103Z,69.8
2024-03-31T15:41:30.109Z,69.7
2024-03-31T15:51:30.088Z,70.1
2024-03-31T15:56:30.086Z,70.1
2024-03-31T16:01:30.095Z,70.2
2024-03-31T16:06:30.106Z,70.6
2024-03-31T16:16:30.092Z,71.5
2024-03-31T16:21:30.169Z,71.4
2024-03-31T16:36:30.140Z,72.3
2024-03-31T16:56:30.101Z,77.4
2024-03-31T17:01:30.111Z,77.5
2024-03-31T17:11:30.117Z,78.1
2024-03-31T17:21:30.105Z,78.6
2024-03-31T17:26:30.092Z,78.5
2024-03-31T17:31:30.129Z,78.6
2024-03-31T17:41:30.086Z,78.5
2024-03-31T17:46:30.113Z,78.3
2024-03-31T17:51:30.161Z,78.3
2024-03-31T18:16:30.105Z,77.4
2024-03-31T18:26:30.092Z,76.3
2024-03-31T18:31:30.098Z,76.4
2024-03-31T18:36:30.108Z,76.4
2024-03-31T18:46:30.149Z,76.2
2024-03-31T18:51:30.142Z,75.8
2024-03-31T19:01:30.098Z,75.6
2024-03-31T19:06:30.106Z,74.7
2024-03-31T19:11:30.121Z,74.2
2024-03-31T19:31:30.135Z,72.2
2024-03-31T19:36:30.134Z,72.3
2024-03-31T19:41:30.091Z,72.2
2024-03-31T19:56:30.128Z,71.2
2024-03-31T20:06:30.151Z,70.5
2024-03-31T20:16:31.648Z,70.1
2024-03-31T20:26:30.122Z,70.5
2024-03-31T20:31:30.179Z,70.7
2024-03-31T20:51:30.174Z,71.4
2024-03-31T21:06:30.150Z,71.3
2024-03-31T21:11:30.140Z,71.3
2024-03-31T21:21:30.110Z,71.1
2024-03-31T21:26:30.135Z,71.1
2024-03-31T21:36:30.105Z,71.1
2024-03-31T21:46:30.162Z,71.3
2024-03-31T21:51:30.169Z,71.1
2024-03-31T22:11:30.143Z,71.2
2024-03-31T22:16:30.167Z,71.2
2024-03-31T22:31:30.154Z,70.8
2024-03-31T22:36:30.149Z,70.9
2024-03-31T22:46:30.145Z,71.1
2024-03-31T22:56:30.148Z,71.3
2024-03-31T23:06:30.313Z,71.2
2024-03-31T23:26:30.145Z,71.1
2024-03-31T23:41:30.140Z,71
2024-03-31T23:46:30.209Z,71.6
2024-03-31T23:51:30.143Z,71
2024-03-31T23:56:30.143Z,71
